Aurora, North Carolina
Current Conditions -  °F | °C
As of 8:54 AM on Tuesday 21 Oct 2014 (Local Time) from KEWN Reporting Station
Clear Clear  
Wind Chill: 63°   Ceiling: Unl
Heat Index: 63°   Visibility: 10mi
Dew Point: 58°   Wind: 5mph
Humidity: 84%   Direction: 240°WSW
Pressure: 29.95"   Gusts: NA
Location:  35.31°N, 76.79°W
Report Text: KEWN 211254Z 24004KT 10SM CLR 17/14 A2995 RMK AO2 SLP143 T01720144
Loading
Personal Weather Stations






























Interactive Weather Map
Tropical Storm Tracking
New forecast layout! Learn more

10-Day Weather Forecast

Advertisements
Track Severe Weather on mobile